createdAt,value
2019-05-22T00:01:07.420Z,8.13
2019-05-22T00:03:41.565Z,7.33
2019-05-22T00:06:10.708Z,7.70
2019-05-22T00:08:40.370Z,7.77
2019-05-22T00:11:10.583Z,6.93
2019-05-22T00:13:40.478Z,7.47
2019-05-22T00:16:09.384Z,6.87
2019-05-22T00:18:39.861Z,7.20
2019-05-22T00:21:10.280Z,7.53
2019-05-22T00:23:40.521Z,8.07
2019-05-22T00:26:10.958Z,7.40
2019-05-22T00:28:40.457Z,7.63
2019-05-22T00:31:09.134Z,8.20
2019-05-22T00:33:39.089Z,7.93
2019-05-22T00:36:08.149Z,7.90
2019-05-22T00:38:37.891Z,9.23
2019-05-22T00:41:07.716Z,8.77
2019-05-22T00:43:44.544Z,8.27
2019-05-22T00:46:20.505Z,7.97
2019-05-22T00:48:49.337Z,7.57
2019-05-22T00:51:29.455Z,7.10
2019-05-22T00:54:16.310Z,6.73
2019-05-22T00:56:56.873Z,6.27
2019-05-22T00:59:29.206Z,7.00
2019-05-22T01:02:01.860Z,6.47
2019-05-22T01:04:34.848Z,5.90
2019-05-22T01:07:07.132Z,7.50
2019-05-22T01:09:39.432Z,7.27
2019-05-22T01:12:16.340Z,7.60
2019-05-22T01:15:07.879Z,7.43
2019-05-22T01:17:38.075Z,6.53
2019-05-22T01:20:09.985Z,7.60
2019-05-22T01:22:39.428Z,7.10
2019-05-22T01:25:10.095Z,7.00
2019-05-22T01:27:38.872Z,6.27
2019-05-22T01:30:11.718Z,6.77
2019-05-22T01:32:49.524Z,6.70
2019-05-22T01:35:19.932Z,7.47
2019-05-22T01:37:50.426Z,6.23
2019-05-22T01:40:32.552Z,5.57
2019-05-22T01:43:02.773Z,5.47
2019-05-22T01:45:31.408Z,6.30
2019-05-22T01:48:02.436Z,5.23
2019-05-22T01:50:43.912Z,5.47
2019-05-22T01:53:15.686Z,5.87
2019-05-22T01:55:48.113Z,5.87
2019-05-22T01:58:20.135Z,5.60
2019-05-22T02:00:49.604Z,6.20
2019-05-22T02:03:19.891Z,5.67
2019-05-22T02:05:49.546Z,4.80
2019-05-22T02:08:19.082Z,5.70
2019-05-22T02:10:49.089Z,5.40
2019-05-22T02:13:40.145Z,5.57
2019-05-22T02:16:12.609Z,5.33
2019-05-22T02:18:41.874Z,5.43
2019-05-22T02:21:11.207Z,6.33
2019-05-22T02:23:40.670Z,5.70
2019-05-22T02:26:28.622Z,5.10
2019-05-22T02:28:58.678Z,5.17
2019-05-22T02:31:28.908Z,5.47
2019-05-22T02:34:03.918Z,5.70
2019-05-22T02:36:34.710Z,5.30
2019-05-22T02:39:04.931Z,5.40
2019-05-22T02:41:42.031Z,6.57
2019-05-22T02:44:10.998Z,5.80
2019-05-22T02:46:39.597Z,5.73
2019-05-22T02:49:10.437Z,6.83
2019-05-22T02:51:40.114Z,6.37
2019-05-22T02:54:08.853Z,6.43
2019-05-22T02:56:37.897Z,6.60
2019-05-22T02:59:07.608Z,7.10
2019-05-22T03:01:37.186Z,6.30
2019-05-22T03:04:07.429Z,6.40
2019-05-22T03:06:36.582Z,5.53
2019-05-22T03:09:20.086Z,5.50
2019-05-22T03:11:54.701Z,5.70
2019-05-22T03:14:24.786Z,5.57
2019-05-22T03:16:56.312Z,5.93
2019-05-22T03:19:32.257Z,5.90
2019-05-22T03:22:00.837Z,5.13
2019-05-22T03:24:29.403Z,5.33
2019-05-22T03:26:57.971Z,5.40
2019-05-22T03:29:37.896Z,5.50
2019-05-22T03:32:07.682Z,6.37
2019-05-22T03:34:37.509Z,7.17
2019-05-22T03:37:07.053Z,6.77
2019-05-22T03:39:35.698Z,6.80
2019-05-22T03:42:05.909Z,6.50
2019-05-22T03:44:34.484Z,7.10
2019-05-22T03:47:07.089Z,6.40
2019-05-22T03:49:39.346Z,6.83
2019-05-22T03:52:09.467Z,6.90
2019-05-22T03:54:38.965Z,5.83
2019-05-22T03:57:26.850Z,6.47
2019-05-22T03:59:55.790Z,5.90
2019-05-22T04:02:24.569Z,6.33
2019-05-22T04:04:54.135Z,5.80
2019-05-22T04:07:24.502Z,6.97
2019-05-22T04:09:53.271Z,6.90
2019-05-22T04:12:24.759Z,6.30
2019-05-22T04:14:53.649Z,7.20
2019-05-22T04:17:25.710Z,6.47
2019-05-22T04:19:54.362Z,6.53
2019-05-22T04:22:22.930Z,5.90
2019-05-22T04:24:51.883Z,6.33
2019-05-22T04:27:21.473Z,6.27
2019-05-22T04:29:50.432Z,6.43
2019-05-22T04:32:28.767Z,6.73
2019-05-22T04:34:57.757Z,7.10
2019-05-22T04:37:26.607Z,6.90
2019-05-22T04:40:33.073Z,7.50
2019-05-22T04:43:01.825Z,6.90
2019-05-22T04:45:30.690Z,6.67
2019-05-22T04:48:00.502Z,6.40
2019-05-22T04:50:29.237Z,7.00
2019-05-22T04:52:58.977Z,7.00
2019-05-22T04:55:28.784Z,7.07
2019-05-22T04:58:19.517Z,6.73
2019-05-22T05:00:48.788Z,7.47
2019-05-22T05:03:17.649Z,7.43
2019-05-22T05:05:49.722Z,7.23
2019-05-22T05:08:18.284Z,7.23
2019-05-22T05:10:48.198Z,7.67
2019-05-22T05:13:17.406Z,6.77
2019-05-22T05:16:06.517Z,7.60
2019-05-22T05:18:35.400Z,7.07
2019-05-22T05:21:03.993Z,6.80
2019-05-22T05:23:32.571Z,7.17
2019-05-22T05:26:01.189Z,5.70
2019-05-22T05:28:29.755Z,5.80
2019-05-22T05:30:58.505Z,6.40
2019-05-22T05:33:27.077Z,5.53
2019-05-22T05:35:55.776Z,5.33
2019-05-22T05:38:34.773Z,6.27
2019-05-22T05:41:22.690Z,5.60
2019-05-22T05:43:51.274Z,5.60
2019-05-22T05:46:20.595Z,5.17
2019-05-22T05:48:49.156Z,5.47
2019-05-22T05:51:27.554Z,5.87
2019-05-22T05:54:01.217Z,5.73
2019-05-22T05:56:31.749Z,6.77
2019-05-22T05:59:02.475Z,5.63
2019-05-22T06:01:34.337Z,6.33
2019-05-22T06:04:03.883Z,5.40
2019-05-22T06:07:14.149Z,6.20
2019-05-22T06:09:42.718Z,6.13
2019-05-22T06:12:11.940Z,5.73
2019-05-22T06:14:41.369Z,5.47
2019-05-22T06:17:54.681Z,5.80
2019-05-22T06:20:24.889Z,5.87
2019-05-22T06:23:45.961Z,5.50
2019-05-22T06:26:40.672Z,5.17
2019-05-22T06:29:12.622Z,6.00
2019-05-22T06:31:55.609Z,6.23
2019-05-22T06:34:24.197Z,6.50
2019-05-22T06:36:53.087Z,7.03
2019-05-22T06:39:21.768Z,6.90
2019-05-22T06:41:51.009Z,6.67
2019-05-22T06:44:30.806Z,6.27
2019-05-22T06:46:59.874Z,6.37
2019-05-22T06:49:39.566Z,5.87
2019-05-22T06:52:08.177Z,6.13
2019-05-22T06:54:37.163Z,6.57
2019-05-22T06:57:08.453Z,7.57
2019-05-22T06:59:37.808Z,7.77
2019-05-22T07:02:06.905Z,8.20
2019-05-22T07:04:36.337Z,8.47
2019-05-22T07:07:06.017Z,7.20
2019-05-22T07:09:37.022Z,7.57
2019-05-22T07:12:06.097Z,8.43
2019-05-22T07:15:20.469Z,8.37
2019-05-22T07:17:52.399Z,7.37
2019-05-22T07:20:21.706Z,6.73
2019-05-22T07:22:50.468Z,7.23
2019-05-22T07:25:19.993Z,8.20
2019-05-22T07:27:49.145Z,6.80
2019-05-22T07:30:17.819Z,7.47
2019-05-22T07:32:46.847Z,7.53
2019-05-22T07:35:15.891Z,7.40
2019-05-22T07:37:46.499Z,7.10
2019-05-22T07:40:15.153Z,7.03
2019-05-22T07:42:44.193Z,6.63
2019-05-22T07:45:12.781Z,6.97
2019-05-22T07:47:42.468Z,7.03
2019-05-22T07:50:11.074Z,6.30
2019-05-22T07:52:39.921Z,6.50
2019-05-22T07:55:08.661Z,6.07
2019-05-22T07:57:37.371Z,6.20
2019-05-22T08:00:05.962Z,6.35
2019-05-22T08:02:39.516Z,6.25
2019-05-22T08:05:09.405Z,5.97
2019-05-22T08:07:39.906Z,7.12
2019-05-22T08:10:10.497Z,7.33
2019-05-22T08:12:39.094Z,6.08
2019-05-22T08:15:08.408Z,6.72
2019-05-22T08:17:37.518Z,7.20
2019-05-22T08:20:06.221Z,8.05
2019-05-22T08:22:36.145Z,8.83
2019-05-22T08:25:04.945Z,8.95
2019-05-22T08:27:33.838Z,8.95
2019-05-22T08:30:02.726Z,8.70
2019-05-22T08:32:32.226Z,8.13
2019-05-22T08:35:03.834Z,7.83
2019-05-22T08:37:33.296Z,7.77
2019-05-22T08:40:03.161Z,7.80
2019-05-22T08:42:51.089Z,8.58
2019-05-22T08:45:20.435Z,7.62
2019-05-22T08:47:49.075Z,7.42
2019-05-22T08:50:19.362Z,7.80
2019-05-22T08:52:48.229Z,9.78
2019-05-22T08:55:17.187Z,8.70
2019-05-22T08:57:46.179Z,10.95
2019-05-22T09:00:16.564Z,10.70
2019-05-22T09:02:45.569Z,11.75
2019-05-22T09:05:14.303Z,12.25
2019-05-22T09:07:43.705Z,13.83
2019-05-22T09:10:13.583Z,12.88
2019-05-22T09:12:42.193Z,12.43
2019-05-22T09:15:11.650Z,13.20
2019-05-22T09:17:40.571Z,12.50
2019-05-22T09:20:10.152Z,13.72
2019-05-22T09:22:40.970Z,11.80
2019-05-22T09:25:12.473Z,12.47
2019-05-22T09:27:41.868Z,11.83
2019-05-22T09:30:10.718Z,10.18
2019-05-22T09:32:39.328Z,11.28
2019-05-22T09:35:07.921Z,10.05
2019-05-22T09:37:36.916Z,8.05
2019-05-22T09:40:06.665Z,7.60
2019-05-22T09:42:36.270Z,6.60
2019-05-22T09:45:05.978Z,7.72
2019-05-22T09:47:34.734Z,8.85
2019-05-22T09:50:03.517Z,9.98
2019-05-22T09:52:32.290Z,9.65
2019-05-22T09:55:00.904Z,9.50
2019-05-22T09:57:29.969Z,8.68
2019-05-22T09:59:58.598Z,6.28
2019-05-22T10:02:28.097Z,6.62
2019-05-22T10:04:56.691Z,9.58
2019-05-22T10:07:25.590Z,8.35
2019-05-22T10:09:54.197Z,6.45
2019-05-22T10:12:23.276Z,8.65
2019-05-22T10:14:52.540Z,10.65
2019-05-22T10:17:21.471Z,8.73
2019-05-22T10:19:50.274Z,7.72
2019-05-22T10:22:19.266Z,7.20
2019-05-22T10:24:50.294Z,7.53
2019-05-22T10:27:18.464Z,7.67
2019-05-22T10:29:47.032Z,6.78
2019-05-22T10:32:16.020Z,6.80
2019-05-22T10:35:04.409Z,9.00
2019-05-22T10:37:33.498Z,12.55
2019-05-22T10:40:02.101Z,14.70
2019-05-22T10:42:31.636Z,16.35
2019-05-22T10:45:00.212Z,14.00
2019-05-22T10:47:29.140Z,14.58
2019-05-22T10:49:57.833Z,18.55
2019-05-22T10:52:26.828Z,14.95
2019-05-22T10:54:56.149Z,14.00
2019-05-22T10:57:25.324Z,13.93
2019-05-22T10:59:53.977Z,13.38
2019-05-22T11:02:23.454Z,12.20
2019-05-22T11:04:52.614Z,13.32
2019-05-22T11:07:21.296Z,11.63
2019-05-22T11:09:50.563Z,12.98
2019-05-22T11:12:19.147Z,11.05
2019-05-22T11:14:48.242Z,13.50
2019-05-22T11:17:17.225Z,14.55
2019-05-22T11:19:46.051Z,16.62
2019-05-22T11:22:15.092Z,14.75
2019-05-22T11:24:43.735Z,15.23
2019-05-22T11:27:13.426Z,11.60
2019-05-22T11:29:42.503Z,14.07
2019-05-22T11:32:11.904Z,21.17
2019-05-22T11:34:41.403Z,20.90
2019-05-22T11:37:29.360Z,22.10
2019-05-22T11:39:57.981Z,20.90
2019-05-22T11:42:26.557Z,20.65
2019-05-22T11:44:55.181Z,21.45
2019-05-22T11:47:23.772Z,22.10
2019-05-22T11:49:52.435Z,23.90
2019-05-22T11:52:21.275Z,23.18
2019-05-22T11:54:49.865Z,22.15
2019-05-22T11:57:18.755Z,17.70
2019-05-22T11:59:47.677Z,20.70
2019-05-22T12:02:16.742Z,21.20
2019-05-22T12:04:48.307Z,22.05
2019-05-22T12:07:15.929Z,20.90
2019-05-22T12:09:44.577Z,18.98
2019-05-22T12:12:13.162Z,16.97
2019-05-22T12:14:41.750Z,19.92
2019-05-22T12:17:10.336Z,20.77
2019-05-22T12:19:38.966Z,18.45
2019-05-22T12:22:08.123Z,18.42
2019-05-22T12:24:37.741Z,17.85
2019-05-22T12:27:06.732Z,18.82
2019-05-22T12:29:35.342Z,20.25
2019-05-22T12:32:03.937Z,21.77
2019-05-22T12:34:32.726Z,22.42
2019-05-22T12:37:02.071Z,20.95
2019-05-22T12:39:30.739Z,21.23
2019-05-22T12:42:00.176Z,18.77
2019-05-22T12:44:28.791Z,19.35
2019-05-22T12:46:57.369Z,15.93
2019-05-22T12:49:26.161Z,18.17
2019-05-22T12:51:54.742Z,17.07
2019-05-22T12:54:23.395Z,17.98
2019-05-22T12:56:52.169Z,17.82
2019-05-22T12:59:21.035Z,17.62
2019-05-22T13:01:51.821Z,17.20
2019-05-22T13:04:20.775Z,16.12
2019-05-22T13:06:49.381Z,19.70
2019-05-22T13:09:17.992Z,19.00
2019-05-22T13:11:46.908Z,18.85
2019-05-22T13:14:15.924Z,18.77
2019-05-22T13:16:48.808Z,18.47
2019-05-22T13:19:15.721Z,11.80
2019-05-22T13:21:45.268Z,11.10
2019-05-22T13:24:34.638Z,14.10
2019-05-22T13:27:04.899Z,12.57
2019-05-22T13:29:34.765Z,13.87
2019-05-22T13:32:05.018Z,16.70
2019-05-22T13:34:34.466Z,16.73
2019-05-22T13:37:03.801Z,13.20
2019-05-22T13:39:32.586Z,12.17
2019-05-22T13:42:02.214Z,7.73
2019-05-22T13:44:31.054Z,5.33
2019-05-22T13:46:59.666Z,8.33
2019-05-22T13:49:30.348Z,5.50
2019-05-22T13:51:58.922Z,8.40
2019-05-22T13:54:27.953Z,7.60
2019-05-22T13:56:56.822Z,5.10
2019-05-22T13:59:25.605Z,4.97
2019-05-22T14:01:54.249Z,4.43
2019-05-22T14:04:22.828Z,3.77
2019-05-22T14:06:51.638Z,3.00
2019-05-22T14:09:21.756Z,3.83
2019-05-22T14:11:50.894Z,6.20
2019-05-22T14:14:19.764Z,4.73
2019-05-22T14:16:49.464Z,3.50
2019-05-22T14:19:18.137Z,3.50
2019-05-22T14:21:51.392Z,3.17
2019-05-22T14:24:17.220Z,3.30
2019-05-22T14:26:45.811Z,3.30
2019-05-22T14:29:14.415Z,1.90
2019-05-22T14:31:43.000Z,2.23
2019-05-22T14:34:11.847Z,2.00
2019-05-22T14:36:40.550Z,2.03
2019-05-22T14:39:10.260Z,2.20
2019-05-22T14:41:39.041Z,2.60
2019-05-22T14:44:07.650Z,3.30
2019-05-22T14:46:36.285Z,2.93
2019-05-22T14:49:04.849Z,3.23
2019-05-22T14:51:33.904Z,3.37
2019-05-22T14:54:02.581Z,3.03
2019-05-22T14:56:31.202Z,2.83
2019-05-22T14:58:59.938Z,4.13
2019-05-22T15:01:29.017Z,3.40
2019-05-22T15:03:57.580Z,3.67
2019-05-22T15:06:26.632Z,3.90
2019-05-22T15:08:55.216Z,4.97
2019-05-22T15:11:23.952Z,4.13
2019-05-22T15:13:52.870Z,5.43
2019-05-22T15:16:21.427Z,5.97
2019-05-22T15:18:50.007Z,5.07
2019-05-22T15:21:19.452Z,4.77
2019-05-22T15:23:48.823Z,4.20
2019-05-22T15:26:17.376Z,4.93
2019-05-22T15:28:45.964Z,5.40
2019-05-22T15:31:14.525Z,6.57
2019-05-22T15:33:43.548Z,6.57
2019-05-22T15:36:32.652Z,4.90
2019-05-22T15:39:01.963Z,5.20
2019-05-22T15:41:31.356Z,5.77
2019-05-22T15:44:00.343Z,5.33
2019-05-22T15:46:28.921Z,6.17
2019-05-22T15:48:57.488Z,6.00
2019-05-22T15:51:27.973Z,6.17
2019-05-22T15:53:56.969Z,5.17
2019-05-22T15:56:26.144Z,5.97
2019-05-22T15:58:54.732Z,6.50
2019-05-22T16:01:24.960Z,7.20
2019-05-22T16:03:54.762Z,6.13
2019-05-22T16:06:25.389Z,6.17
2019-05-22T16:08:54.236Z,7.20
2019-05-22T16:11:22.816Z,6.53
2019-05-22T16:13:51.873Z,6.93
2019-05-22T16:16:22.072Z,7.93
2019-05-22T16:18:51.999Z,7.73
2019-05-22T16:21:23.348Z,7.23
2019-05-22T16:23:52.903Z,7.10
2019-05-22T16:26:22.190Z,7.40
2019-05-22T16:28:50.772Z,7.90
2019-05-22T16:31:20.479Z,7.70
2019-05-22T16:33:49.333Z,9.23
2019-05-22T16:36:20.042Z,7.77
2019-05-22T16:38:49.773Z,8.23
2019-05-22T16:41:19.004Z,9.40
2019-05-22T16:43:49.981Z,9.17
2019-05-22T16:46:18.889Z,9.27
2019-05-22T16:48:47.946Z,8.77
2019-05-22T16:51:17.196Z,8.73
2019-05-22T16:53:53.146Z,8.83
2019-05-22T16:56:41.317Z,9.00
2019-05-22T16:59:11.181Z,7.93
2019-05-22T17:01:57.583Z,8.70
2019-05-22T17:04:11.427Z,8.40
2019-05-22T17:06:41.327Z,8.80
2019-05-22T17:09:11.318Z,7.90
2019-05-22T17:11:40.569Z,7.80
2019-05-22T17:14:10.352Z,8.13
2019-05-22T17:16:41.244Z,7.63
2019-05-22T17:19:25.729Z,7.17
2019-05-22T17:21:40.978Z,7.70
2019-05-22T17:24:09.732Z,6.37
2019-05-22T17:26:38.300Z,6.83
2019-05-22T17:29:07.201Z,6.83
2019-05-22T17:31:35.963Z,6.37
2019-05-22T17:34:06.768Z,5.63
2019-05-22T17:36:35.739Z,5.93
2019-05-22T17:39:05.304Z,6.80
2019-05-22T17:41:56.090Z,5.97
2019-05-22T17:44:23.681Z,6.40
2019-05-22T17:46:52.722Z,6.07
2019-05-22T17:49:21.286Z,6.17
2019-05-22T17:51:50.190Z,6.50
2019-05-22T17:54:18.757Z,5.80
2019-05-22T17:56:47.336Z,6.50
2019-05-22T17:59:16.385Z,6.77
2019-05-22T18:01:45.025Z,7.13
2019-05-22T18:04:13.597Z,6.83
2019-05-22T18:06:42.373Z,6.53
2019-05-22T18:09:10.947Z,6.57
2019-05-22T18:11:40.216Z,5.20
2019-05-22T18:14:09.640Z,5.63
2019-05-22T18:16:38.274Z,5.47
2019-05-22T18:19:08.552Z,4.57
2019-05-22T18:21:38.389Z,4.30
2019-05-22T18:24:08.843Z,4.50
2019-05-22T18:26:38.077Z,5.10
2019-05-22T18:29:06.708Z,3.70
2019-05-22T18:31:35.769Z,3.50
2019-05-22T18:34:04.342Z,2.97
2019-05-22T18:36:32.917Z,3.50
2019-05-22T18:39:01.478Z,3.37
2019-05-22T18:41:30.040Z,3.43
2019-05-22T18:43:59.001Z,3.50
2019-05-22T18:46:27.709Z,2.77
2019-05-22T18:48:56.264Z,2.60
2019-05-22T18:51:44.323Z,3.93
2019-05-22T18:54:12.900Z,3.63
2019-05-22T18:56:41.653Z,3.20
2019-05-22T18:59:10.223Z,3.77
2019-05-22T19:01:38.779Z,3.50
2019-05-22T19:04:07.423Z,3.90
2019-05-22T19:06:36.002Z,3.70
2019-05-22T19:09:06.920Z,3.57
2019-05-22T19:11:35.758Z,3.70
2019-05-22T19:14:05.414Z,3.10
2019-05-22T19:16:34.158Z,3.60
2019-05-22T19:19:02.755Z,3.60
2019-05-22T19:21:31.381Z,3.77
2019-05-22T19:23:59.940Z,4.00
2019-05-22T19:26:28.902Z,3.73
2019-05-22T19:28:58.303Z,3.60
2019-05-22T19:31:26.922Z,3.40
2019-05-22T19:33:55.565Z,3.07
2019-05-22T19:36:24.147Z,3.50
2019-05-22T19:39:12.021Z,3.77
2019-05-22T19:41:40.608Z,3.63
2019-05-22T19:44:10.510Z,3.20
2019-05-22T19:46:39.460Z,4.00
2019-05-22T19:49:08.443Z,4.33
2019-05-22T19:51:37.628Z,4.23
2019-05-22T19:54:06.227Z,4.10
2019-05-22T19:56:34.858Z,4.23
2019-05-22T19:59:04.302Z,3.83
2019-05-22T20:01:33.241Z,3.37
2019-05-22T20:04:21.138Z,3.30
2019-05-22T20:06:50.101Z,3.50
2019-05-22T20:09:19.009Z,3.50
2019-05-22T20:11:48.018Z,3.73
2019-05-22T20:14:17.161Z,3.80
2019-05-22T20:16:46.316Z,3.80
2019-05-22T20:19:15.363Z,3.47
2019-05-22T20:21:44.133Z,3.80
2019-05-22T20:24:12.708Z,3.80
2019-05-22T20:26:41.861Z,3.40
2019-05-22T20:29:10.493Z,3.40
2019-05-22T20:31:39.056Z,3.17
2019-05-22T20:34:08.216Z,3.70
2019-05-22T20:36:37.658Z,3.47
2019-05-22T20:39:09.267Z,3.30
2019-05-22T20:41:38.210Z,3.50
2019-05-22T20:44:07.943Z,3.10
2019-05-22T20:46:37.870Z,3.67
2019-05-22T20:49:08.677Z,3.30
2019-05-22T20:51:37.547Z,3.53
2019-05-22T20:54:06.405Z,3.70
2019-05-22T20:56:37.428Z,3.60
2019-05-22T20:59:06.370Z,3.30
2019-05-22T21:01:35.012Z,3.67
2019-05-22T21:04:04.162Z,3.23
2019-05-22T21:06:33.781Z,3.47
2019-05-22T21:09:04.117Z,3.60
2019-05-22T21:11:33.373Z,3.63
2019-05-22T21:14:03.227Z,3.83
2019-05-22T21:16:31.796Z,4.37
2019-05-22T21:19:01.343Z,3.80
2019-05-22T21:21:30.364Z,3.80
2019-05-22T21:24:10.582Z,3.83
2019-05-22T21:26:30.107Z,3.90
2019-05-22T21:28:58.666Z,4.40
2019-05-22T21:31:27.609Z,4.13
2019-05-22T21:33:56.726Z,4.47
2019-05-22T21:36:26.691Z,4.57
2019-05-22T21:38:55.423Z,4.70
2019-05-22T21:41:24.172Z,4.63
2019-05-22T21:43:53.142Z,4.97
2019-05-22T21:46:22.262Z,4.60
2019-05-22T21:48:53.506Z,4.73
2019-05-22T21:51:23.377Z,4.77
2019-05-22T21:53:53.000Z,5.27
2019-05-22T21:56:22.025Z,5.53
2019-05-22T21:58:52.246Z,5.23
2019-05-22T22:01:29.955Z,4.83
2019-05-22T22:04:08.809Z,4.70
2019-05-22T22:06:37.413Z,4.90
2019-05-22T22:09:08.501Z,5.23
2019-05-22T22:11:37.382Z,5.47
2019-05-22T22:14:25.798Z,5.67
2019-05-22T22:16:55.129Z,5.27
2019-05-22T22:19:24.144Z,5.10
2019-05-22T22:21:53.529Z,5.63
2019-05-22T22:24:23.193Z,5.10
2019-05-22T22:26:51.854Z,6.40
2019-05-22T22:29:20.715Z,5.63
2019-05-22T22:31:51.019Z,5.77
2019-05-22T22:34:26.220Z,5.83
2019-05-22T22:36:56.151Z,6.27
2019-05-22T22:39:25.660Z,5.77
2019-05-22T22:41:54.736Z,5.97
2019-05-22T22:44:23.361Z,5.73
2019-05-22T22:47:01.158Z,5.67
2019-05-22T22:49:30.011Z,5.87
2019-05-22T22:51:58.722Z,5.87
2019-05-22T22:54:27.961Z,5.93
2019-05-22T22:56:57.843Z,5.77
2019-05-22T22:59:27.685Z,5.77
2019-05-22T23:01:57.279Z,6.33
2019-05-22T23:04:28.428Z,5.43
2019-05-22T23:07:01.400Z,6.40
2019-05-22T23:09:30.531Z,6.40
2019-05-22T23:14:44.530Z,5.97
2019-05-22T23:17:13.288Z,6.70
2019-05-22T23:19:44.341Z,6.40
2019-05-22T23:22:24.160Z,6.20
2019-05-22T23:24:54.221Z,6.17
2019-05-22T23:27:25.120Z,6.40
2019-05-22T23:29:54.104Z,6.30
2019-05-22T23:32:22.680Z,5.97
2019-05-22T23:34:52.173Z,5.83
2019-05-22T23:37:22.250Z,5.90
2019-05-22T23:39:53.015Z,6.07
2019-05-22T23:42:30.002Z,6.93
2019-05-22T23:44:58.966Z,6.93
2019-05-22T23:47:34.974Z,6.53
2019-05-22T23:50:03.297Z,6.87
2019-05-22T23:52:51.259Z,6.33
2019-05-22T23:55:21.005Z,6.63
2019-05-22T23:57:51.092Z,7.37
